Terminal Aerodrome Forecast
Issued by NWS

Home | Current Version | Previous Version | Text Only | Print | Product List | Glossary On
Versions: 1 2 3 4 5 6 7 8 9 10 11 12 13 14 15 16
000
FTUS45 KBOU 041737
TAFAPA
TAF
KAPA 041737Z 0418/0518 15006KT P6SM FEW200
     FM042200 08007KT P6SM FEW100 FEW220
     FM050200 15007KT P6SM FEW090 SCT220
     FM050500 18011KT P6SM SCT220
     FM051500 24006KT P6SM FEW120 SCT220=

USA.gov is the U.S. government's official web portal to all federal, state and local government web resources and services.